createdAt,value
2023-03-13T00:01:01.029Z,9.70
2023-03-13T00:02:03.325Z,9.07
2023-03-13T00:03:05.977Z,9.07
2023-03-13T00:04:08.720Z,8.40
2023-03-13T00:05:13.985Z,7.70
2023-03-13T00:06:19.348Z,8.63
2023-03-13T00:07:21.587Z,6.57
2023-03-13T00:08:25.160Z,7.60
2023-03-13T00:09:28.522Z,8.63
2023-03-13T00:10:30.820Z,7.37
2023-03-13T00:11:34.183Z,7.10
2023-03-13T00:12:36.673Z,7.43
2023-03-13T00:13:39.138Z,9.47
2023-03-13T00:14:41.467Z,7.20
2023-03-13T00:15:43.630Z,9.47
2023-03-13T00:16:50.085Z,6.07
2023-03-13T00:17:52.364Z,7.47
2023-03-13T00:18:55.853Z,10.27
2023-03-13T00:19:58.088Z,8.77
2023-03-13T00:21:09.256Z,8.97
2023-03-13T00:22:11.642Z,8.07
2023-03-13T00:23:13.877Z,6.93
2023-03-13T00:24:16.776Z,5.83
2023-03-13T00:25:19.500Z,6.93
2023-03-13T00:26:24.571Z,7.97
2023-03-13T00:27:26.724Z,8.67
2023-03-13T00:28:32.616Z,8.70
2023-03-13T00:29:35.220Z,10.50
2023-03-13T00:30:37.798Z,10.83
2023-03-13T00:31:40.228Z,10.10
2023-03-13T00:32:47.505Z,7.83
2023-03-13T00:33:53.677Z,9.87
2023-03-13T00:34:55.968Z,9.47
2023-03-13T00:36:01.584Z,10.03
2023-03-13T00:37:03.790Z,8.63
2023-03-13T00:38:05.989Z,8.13
2023-03-13T00:39:08.319Z,7.00
2023-03-13T00:40:11.654Z,9.17
2023-03-13T00:41:16.997Z,7.57
2023-03-13T00:42:19.167Z,8.97
2023-03-13T00:43:21.355Z,9.53
2023-03-13T00:44:23.562Z,8.90
2023-03-13T00:45:27.143Z,9.37
2023-03-13T00:46:30.994Z,9.33
2023-03-13T00:47:34.469Z,7.17
2023-03-13T00:48:40.166Z,7.23
2023-03-13T00:49:42.367Z,8.67
2023-03-13T00:50:44.629Z,9.83
2023-03-13T00:51:46.920Z,7.90
2023-03-13T00:52:49.150Z,9.43
2023-03-13T00:53:51.320Z,8.77
2023-03-13T00:54:53.746Z,10.27
2023-03-13T00:56:00.107Z,8.43
2023-03-13T00:57:02.971Z,9.40
2023-03-13T00:58:05.407Z,11.00
2023-03-13T00:59:08.335Z,11.30
2023-03-13T01:00:11.482Z,7.37
2023-03-13T01:01:22.900Z,8.23
2023-03-13T01:02:27.848Z,11.27
2023-03-13T01:03:30.602Z,6.80
2023-03-13T01:04:32.917Z,7.03
2023-03-13T01:05:35.174Z,10.87
2023-03-13T01:06:42.839Z,12.60
2023-03-13T01:07:45.369Z,5.27
2023-03-13T01:08:48.390Z,8.57
2023-03-13T01:09:50.660Z,10.87
2023-03-13T01:11:02.175Z,12.97
2023-03-13T01:12:04.553Z,10.17
2023-03-13T01:13:07.540Z,7.80
2023-03-13T01:14:18.940Z,9.20
2023-03-13T01:15:21.649Z,10.73
2023-03-13T01:16:24.865Z,8.47
2023-03-13T01:17:28.744Z,7.43
2023-03-13T01:18:31.289Z,8.77
2023-03-13T01:19:34.162Z,9.60
2023-03-13T01:20:36.400Z,7.30
2023-03-13T01:21:39.213Z,9.90
2023-03-13T01:22:41.345Z,5.90
2023-03-13T01:23:43.687Z,7.80
2023-03-13T01:24:47.785Z,7.97
2023-03-13T01:25:50.251Z,9.17
2023-03-13T01:26:52.490Z,7.80
2023-03-13T01:27:54.875Z,6.87
2023-03-13T01:28:57.869Z,8.30
2023-03-13T01:30:01.048Z,8.83
2023-03-13T01:31:24.236Z,8.03
2023-03-13T01:32:26.564Z,9.20
2023-03-13T01:33:29.730Z,8.27
2023-03-13T01:34:33.070Z,9.87
2023-03-13T01:35:35.271Z,8.33
2023-03-13T01:36:38.230Z,9.37
2023-03-13T01:37:40.399Z,11.13
2023-03-13T01:38:43.837Z,9.20
2023-03-13T01:39:47.172Z,9.57
2023-03-13T01:40:49.881Z,10.97
2023-03-13T01:41:52.197Z,10.73
2023-03-13T01:43:00.197Z,8.20
2023-03-13T01:44:03.145Z,7.40
2023-03-13T01:45:47.369Z,6.70
2023-03-13T01:46:49.758Z,7.07
2023-03-13T01:48:01.085Z,6.87
2023-03-13T01:49:34.783Z,11.97
2023-03-13T01:50:43.507Z,7.53
2023-03-13T01:52:16.024Z,9.63
2023-03-13T01:53:25.512Z,9.00
2023-03-13T01:54:45.599Z,8.53
2023-03-13T01:55:50.912Z,7.77
2023-03-13T01:57:03.470Z,10.57
2023-03-13T01:58:05.811Z,8.90
2023-03-13T01:59:11.211Z,9.00
2023-03-13T02:00:18.002Z,10.50
2023-03-13T02:01:20.970Z,7.97
2023-03-13T02:02:24.840Z,11.03
2023-03-13T02:03:28.467Z,8.70
2023-03-13T02:04:36.778Z,8.57
2023-03-13T02:05:41.432Z,7.23
2023-03-13T02:06:47.028Z,9.03
2023-03-13T02:08:01.465Z,10.07
2023-03-13T02:09:07.970Z,11.90
2023-03-13T02:10:11.696Z,10.33
2023-03-13T02:11:23.583Z,7.60
2023-03-13T02:12:32.910Z,9.87
2023-03-13T02:13:37.448Z,7.43
2023-03-13T02:14:43.268Z,11.87
2023-03-13T02:15:46.425Z,10.13
2023-03-13T02:16:52.134Z,9.47
2023-03-13T02:17:56.422Z,10.97
2023-03-13T02:19:02.165Z,11.53
2023-03-13T02:20:05.312Z,6.70
2023-03-13T02:21:20.524Z,9.10
2023-03-13T02:22:52.121Z,8.30
2023-03-13T02:24:02.829Z,13.23
2023-03-13T02:25:23.348Z,8.50
2023-03-13T02:26:28.127Z,11.10
2023-03-13T02:27:30.378Z,8.77
2023-03-13T02:28:35.282Z,10.10
2023-03-13T02:29:41.920Z,8.23
2023-03-13T02:30:45.696Z,9.03
2023-03-13T02:31:48.729Z,7.17
2023-03-13T02:32:55.685Z,7.83
2023-03-13T02:34:00.870Z,8.27
2023-03-13T02:35:08.787Z,9.03
2023-03-13T02:36:14.882Z,12.03
2023-03-13T02:37:19.811Z,6.67
2023-03-13T02:38:25.775Z,7.03
2023-03-13T02:39:30.597Z,9.93
2023-03-13T02:40:37.293Z,9.17
2023-03-13T02:41:42.223Z,7.30
2023-03-13T02:42:48.731Z,8.53
2023-03-13T02:43:51.059Z,8.33
2023-03-13T02:44:54.477Z,6.90
2023-03-13T02:46:18.316Z,7.67
2023-03-13T02:47:25.298Z,9.17
2023-03-13T02:48:36.066Z,7.67
2023-03-13T02:49:39.102Z,10.63
2023-03-13T02:50:41.752Z,10.07
2023-03-13T02:51:46.203Z,9.03
2023-03-13T02:53:02.120Z,7.73
2023-03-13T02:54:12.416Z,9.33
2023-03-13T02:55:22.628Z,8.17
2023-03-13T02:56:27.135Z,10.97
2023-03-13T02:57:31.881Z,10.83
2023-03-13T02:58:49.789Z,9.07
2023-03-13T02:59:55.554Z,7.47
2023-03-13T03:00:57.941Z,9.23
2023-03-13T03:02:01.207Z,6.67
2023-03-13T03:03:03.507Z,8.77
2023-03-13T03:04:06.789Z,10.07
2023-03-13T03:05:09.929Z,10.33
2023-03-13T03:06:12.192Z,8.33
2023-03-13T03:07:14.770Z,9.07
2023-03-13T03:08:17.639Z,7.70
2023-03-13T03:09:22.244Z,7.60
2023-03-13T03:10:27.472Z,6.77
2023-03-13T03:11:29.812Z,6.17
2023-03-13T03:12:36.840Z,9.73
2023-03-13T03:13:40.139Z,7.97
2023-03-13T03:14:42.410Z,10.33
2023-03-13T03:15:45.833Z,9.17
2023-03-13T03:16:48.779Z,10.53
2023-03-13T03:17:51.635Z,8.77
2023-03-13T03:18:53.891Z,9.90
2023-03-13T03:19:57.808Z,11.07
2023-03-13T03:21:00.618Z,10.07
2023-03-13T03:22:03.289Z,8.20
2023-03-13T03:23:07.637Z,8.50
2023-03-13T03:24:10.082Z,6.27
2023-03-13T03:25:12.701Z,7.90
2023-03-13T03:26:14.931Z,9.57
2023-03-13T03:27:17.186Z,8.77
2023-03-13T03:28:25.218Z,7.97
2023-03-13T03:29:28.066Z,6.93
2023-03-13T03:30:31.480Z,7.13
2023-03-13T03:31:34.177Z,9.30
2023-03-13T03:32:38.144Z,7.37
2023-03-13T03:33:41.078Z,10.43
2023-03-13T03:34:46.019Z,9.23
2023-03-13T03:35:49.133Z,8.00
2023-03-13T03:36:51.671Z,8.80
2023-03-13T03:37:54.173Z,10.37
2023-03-13T03:38:56.881Z,9.10
2023-03-13T03:40:02.005Z,8.70
2023-03-13T03:41:07.803Z,10.93
2023-03-13T03:42:10.599Z,6.63
2023-03-13T03:43:13.616Z,5.97
2023-03-13T03:44:16.534Z,8.63
2023-03-13T03:45:40.352Z,6.23
2023-03-13T03:46:42.984Z,8.40
2023-03-13T03:47:46.803Z,7.83
2023-03-13T03:48:49.280Z,8.67
2023-03-13T03:49:52.044Z,7.03
2023-03-13T03:50:55.050Z,10.10
2023-03-13T03:51:58.154Z,9.47
2023-03-13T03:53:06.255Z,8.57
2023-03-13T03:54:08.543Z,7.60
2023-03-13T03:55:10.701Z,9.20
2023-03-13T03:56:13.136Z,7.87
2023-03-13T03:57:21.176Z,7.53
2023-03-13T03:58:24.122Z,7.07
2023-03-13T03:59:35.447Z,6.90
2023-03-13T04:00:48.127Z,10.00
2023-03-13T04:01:51.466Z,8.50
2023-03-13T04:02:59.224Z,9.10
2023-03-13T04:04:01.729Z,8.10
2023-03-13T04:05:06.023Z,8.50
2023-03-13T04:06:24.366Z,8.50
2023-03-13T04:07:26.633Z,8.57
2023-03-13T04:08:29.159Z,9.97
2023-03-13T04:09:32.945Z,10.00
2023-03-13T04:10:36.895Z,7.27
2023-03-13T04:11:39.336Z,7.30
2023-03-13T04:12:44.429Z,7.97
2023-03-13T04:13:46.699Z,9.10
2023-03-13T04:14:48.995Z,6.07
2023-03-13T04:15:51.463Z,6.97
2023-03-13T04:16:53.691Z,8.37
2023-03-13T04:17:55.860Z,9.20
2023-03-13T04:18:58.325Z,7.30
2023-03-13T04:20:01.949Z,8.20
2023-03-13T04:21:06.452Z,9.90
2023-03-13T04:22:16.576Z,9.90
2023-03-13T04:23:25.975Z,7.13
2023-03-13T04:24:28.213Z,9.33
2023-03-13T04:25:33.253Z,7.37
2023-03-13T04:26:38.751Z,8.90
2023-03-13T04:27:41.383Z,7.37
2023-03-13T04:28:45.278Z,9.70
2023-03-13T04:29:52.470Z,6.47
2023-03-13T04:31:13.460Z,7.53
2023-03-13T04:32:34.142Z,7.27
2023-03-13T04:33:52.960Z,12.07
2023-03-13T04:35:16.349Z,9.40
2023-03-13T04:36:30.315Z,9.53
2023-03-13T04:37:48.116Z,9.73
2023-03-13T04:39:01.991Z,11.30
2023-03-13T04:40:13.839Z,8.30
2023-03-13T04:41:35.464Z,7.73
2023-03-13T04:42:51.899Z,7.30
2023-03-13T04:44:00.117Z,6.73
2023-03-13T04:45:12.743Z,11.20
2023-03-13T04:46:24.351Z,8.33
2023-03-13T04:47:35.583Z,6.40
2023-03-13T04:49:02.822Z,8.80
2023-03-13T04:50:37.809Z,10.33
2023-03-13T04:51:59.553Z,7.53
2023-03-13T04:53:10.685Z,6.87
2023-03-13T04:54:39.319Z,7.90
2023-03-13T04:55:56.775Z,7.13
2023-03-13T04:57:15.972Z,7.13
2023-03-13T04:58:38.627Z,9.30
2023-03-13T04:59:47.242Z,9.67
2023-03-13T05:01:02.980Z,9.70
2023-03-13T05:02:24.107Z,7.77
2023-03-13T05:03:44.804Z,6.57
2023-03-13T05:05:14.526Z,9.07
2023-03-13T05:06:49.817Z,7.70
2023-03-13T05:08:08.849Z,9.13
2023-03-13T05:09:20.140Z,10.57
2023-03-13T05:10:33.304Z,8.97
2023-03-13T05:11:38.482Z,7.90
2023-03-13T05:13:09.921Z,11.37
2023-03-13T05:14:30.618Z,7.27
2023-03-13T05:16:02.675Z,8.73
2023-03-13T05:17:23.569Z,7.03
2023-03-13T05:18:25.728Z,7.27
2023-03-13T05:19:47.702Z,7.30
2023-03-13T05:21:03.063Z,8.13
2023-03-13T05:22:18.201Z,8.80
2023-03-13T05:23:42.059Z,7.83
2023-03-13T05:24:59.800Z,8.27
2023-03-13T05:26:12.115Z,8.67
2023-03-13T05:27:34.543Z,7.73
2023-03-13T05:28:56.714Z,5.13
2023-03-13T05:30:09.841Z,9.33
2023-03-13T05:31:24.880Z,7.47
2023-03-13T05:32:48.346Z,6.90
2023-03-13T05:34:10.592Z,9.50
2023-03-13T05:35:31.127Z,10.13
2023-03-13T05:36:46.506Z,8.20
2023-03-13T05:37:55.822Z,7.23
2023-03-13T05:39:20.545Z,7.90
2023-03-13T05:40:24.609Z,9.03
2023-03-13T05:41:45.567Z,8.77
2023-03-13T05:43:07.241Z,8.03
2023-03-13T05:44:28.322Z,7.00
2023-03-13T05:45:49.398Z,7.67
2023-03-13T05:47:12.925Z,7.43
2023-03-13T05:48:40.415Z,7.80
2023-03-13T05:50:12.210Z,9.57
2023-03-13T05:51:40.925Z,6.77
2023-03-13T05:53:13.561Z,7.63
2023-03-13T05:54:28.437Z,7.17
2023-03-13T05:55:44.745Z,7.67
2023-03-13T05:57:19.175Z,7.17
2023-03-13T05:58:56.565Z,10.87
2023-03-13T06:00:26.532Z,6.97
2023-03-13T06:01:55.824Z,7.00
2023-03-13T06:03:06.885Z,8.37
2023-03-13T06:04:13.456Z,7.27
2023-03-13T06:05:16.756Z,8.07
2023-03-13T06:06:20.049Z,8.20
2023-03-13T06:07:30.251Z,6.10
2023-03-13T06:08:33.188Z,7.77
2023-03-13T06:09:35.919Z,7.43
2023-03-13T06:10:39.783Z,9.30
2023-03-13T06:11:42.603Z,6.17
2023-03-13T06:13:13.726Z,7.53
2023-03-13T06:14:20.280Z,8.10
2023-03-13T06:15:36.100Z,6.83
2023-03-13T06:16:49.061Z,8.53
2023-03-13T06:17:55.346Z,4.53
2023-03-13T06:18:58.412Z,7.03
2023-03-13T06:20:00.859Z,6.87
2023-03-13T06:21:03.477Z,6.00
2023-03-13T06:22:05.748Z,6.63
2023-03-13T06:23:08.226Z,8.83
2023-03-13T06:24:10.826Z,6.60
2023-03-13T06:25:14.773Z,7.20
2023-03-13T06:26:17.667Z,6.40
2023-03-13T06:27:21.195Z,7.20
2023-03-13T06:28:23.438Z,6.63
2023-03-13T06:29:25.764Z,7.47
2023-03-13T06:30:27.959Z,6.37
2023-03-13T06:31:30.735Z,9.03
2023-03-13T06:32:33.402Z,7.13
2023-03-13T06:33:35.860Z,7.23
2023-03-13T06:34:38.115Z,7.43
2023-03-13T06:35:55.245Z,7.80
2023-03-13T06:37:01.392Z,4.10
2023-03-13T06:38:04.867Z,6.20
2023-03-13T06:39:07.344Z,7.97
2023-03-13T06:40:10.612Z,9.23
2023-03-13T06:41:14.768Z,7.10
2023-03-13T06:42:17.082Z,4.90
2023-03-13T06:43:20.974Z,7.67
2023-03-13T06:44:23.235Z,5.10
2023-03-13T06:45:27.266Z,8.17
2023-03-13T06:46:29.759Z,6.27
2023-03-13T06:47:32.871Z,6.97
2023-03-13T06:48:35.708Z,7.83
2023-03-13T06:49:38.225Z,6.50
2023-03-13T06:50:44.811Z,5.87
2023-03-13T06:51:47.177Z,6.87
2023-03-13T06:52:49.475Z,8.63
2023-03-13T06:53:52.599Z,5.17
2023-03-13T06:54:56.133Z,5.90
2023-03-13T06:56:01.115Z,7.80
2023-03-13T06:57:03.433Z,5.73
2023-03-13T06:58:05.652Z,8.00
2023-03-13T06:59:08.039Z,5.20
2023-03-13T07:00:11.850Z,6.60
2023-03-13T07:01:16.145Z,7.10
2023-03-13T07:02:19.471Z,4.20
2023-03-13T07:03:21.731Z,4.63
2023-03-13T07:04:25.211Z,6.50
2023-03-13T07:05:27.628Z,6.00
2023-03-13T07:06:30.152Z,6.33
2023-03-13T07:07:33.676Z,5.23
2023-03-13T07:08:36.982Z,6.73
2023-03-13T07:09:39.254Z,5.63
2023-03-13T07:10:43.280Z,7.10
2023-03-13T07:11:47.796Z,4.63
2023-03-13T07:12:50.008Z,8.37
2023-03-13T07:14:03.259Z,5.40
2023-03-13T07:15:14.609Z,4.50
2023-03-13T07:16:20.599Z,6.83
2023-03-13T07:17:22.944Z,6.03
2023-03-13T07:18:25.311Z,7.73
2023-03-13T07:19:27.614Z,4.33
2023-03-13T07:20:31.188Z,7.80
2023-03-13T07:21:36.428Z,5.00
2023-03-13T07:22:38.590Z,5.40
2023-03-13T07:23:41.621Z,7.53
2023-03-13T07:24:43.928Z,4.07
2023-03-13T07:26:03.416Z,10.27
2023-03-13T07:27:08.176Z,4.60
2023-03-13T07:28:10.649Z,6.23
2023-03-13T07:29:15.336Z,6.53
2023-03-13T07:30:19.435Z,5.90
2023-03-13T07:31:23.979Z,5.93
2023-03-13T07:32:26.284Z,4.87
2023-03-13T07:33:28.655Z,5.50
2023-03-13T07:34:30.866Z,6.37
2023-03-13T07:35:35.915Z,4.90
2023-03-13T07:36:41.927Z,6.03
2023-03-13T07:37:47.781Z,5.33
2023-03-13T07:38:50.859Z,4.80
2023-03-13T07:39:54.930Z,6.83
2023-03-13T07:40:58.347Z,5.73
2023-03-13T07:42:00.512Z,6.67
2023-03-13T07:43:04.284Z,4.40
2023-03-13T07:44:07.007Z,5.20
2023-03-13T07:45:09.747Z,6.60
2023-03-13T07:46:18.905Z,4.63
2023-03-13T07:47:21.167Z,5.53
2023-03-13T07:48:28.860Z,4.97
2023-03-13T07:49:31.036Z,5.40
2023-03-13T07:50:33.359Z,4.97
2023-03-13T07:51:43.509Z,4.40
2023-03-13T07:52:46.003Z,4.67
2023-03-13T07:53:48.698Z,5.00
2023-03-13T07:54:50.973Z,5.70
2023-03-13T07:55:59.589Z,4.57
2023-03-13T07:57:03.324Z,5.23
2023-03-13T07:58:05.544Z,3.53
2023-03-13T07:59:08.089Z,6.30
2023-03-13T08:00:16.549Z,4.87
2023-03-13T08:01:30.339Z,4.40
2023-03-13T08:02:34.863Z,5.20
2023-03-13T08:03:39.726Z,5.03
2023-03-13T08:04:42.733Z,5.37
2023-03-13T08:05:44.950Z,5.17
2023-03-13T08:06:47.205Z,5.40
2023-03-13T08:07:49.406Z,5.20
2023-03-13T08:08:53.894Z,4.17
2023-03-13T08:09:56.096Z,3.87
2023-03-13T08:11:11.345Z,6.43
2023-03-13T08:12:33.873Z,5.13
2023-03-13T08:13:43.923Z,4.33
2023-03-13T08:14:57.521Z,4.50
2023-03-13T08:16:14.832Z,4.77
2023-03-13T08:17:17.136Z,5.10
2023-03-13T08:18:28.470Z,3.57
2023-03-13T08:19:31.097Z,4.17
2023-03-13T08:20:34.462Z,4.23
2023-03-13T08:21:38.061Z,4.57
2023-03-13T08:22:40.273Z,4.80
2023-03-13T08:23:43.114Z,3.57
2023-03-13T08:24:47.327Z,4.90
2023-03-13T08:25:49.834Z,3.47
2023-03-13T08:26:51.999Z,5.17
2023-03-13T08:27:55.115Z,4.33
2023-03-13T08:29:03.790Z,3.43
2023-03-13T08:30:07.262Z,3.77
2023-03-13T08:31:14.124Z,3.63
2023-03-13T08:32:18.442Z,4.50
2023-03-13T08:33:22.036Z,4.10
2023-03-13T08:34:24.209Z,5.17
2023-03-13T08:35:26.444Z,3.40
2023-03-13T08:36:32.947Z,5.77
2023-03-13T08:37:35.250Z,3.90
2023-03-13T08:38:39.470Z,4.93
2023-03-13T08:39:41.713Z,4.57
2023-03-13T08:40:43.872Z,5.20
2023-03-13T08:41:48.840Z,3.70
2023-03-13T08:42:51.059Z,2.47
2023-03-13T08:43:54.740Z,4.53
2023-03-13T08:44:57.000Z,3.37
2023-03-13T08:46:00.328Z,3.57
2023-03-13T08:47:02.572Z,3.30
2023-03-13T08:48:05.868Z,3.13
2023-03-13T08:49:08.849Z,3.67
2023-03-13T08:50:14.280Z,6.13
2023-03-13T08:51:16.605Z,3.43
2023-03-13T08:52:18.952Z,3.87
2023-03-13T08:53:21.090Z,3.00
2023-03-13T08:54:23.282Z,3.83
2023-03-13T08:55:26.608Z,2.33
2023-03-13T08:56:33.280Z,4.10
2023-03-13T08:57:35.520Z,1.90
2023-03-13T08:58:38.388Z,4.23
2023-03-13T08:59:40.584Z,2.67
2023-03-13T09:00:42.863Z,3.67
2023-03-13T09:01:45.181Z,2.33
2023-03-13T09:02:47.588Z,2.73
2023-03-13T09:03:50.505Z,2.20
2023-03-13T09:04:53.751Z,3.37
2023-03-13T09:06:00.369Z,1.87
2023-03-13T09:07:02.855Z,2.93
2023-03-13T09:08:05.245Z,2.07
2023-03-13T09:09:08.364Z,2.10
2023-03-13T09:10:11.955Z,2.57
2023-03-13T09:11:19.166Z,2.73
2023-03-13T09:12:30.865Z,2.03
2023-03-13T09:13:35.731Z,1.47
2023-03-13T09:14:37.968Z,2.03
2023-03-13T09:15:40.341Z,2.30
2023-03-13T09:16:42.502Z,2.33
2023-03-13T09:17:44.901Z,1.50
2023-03-13T09:18:50.304Z,2.43
2023-03-13T09:20:00.028Z,1.90
2023-03-13T09:21:03.933Z,1.80
2023-03-13T09:22:08.696Z,1.73
2023-03-13T09:23:12.839Z,2.03
2023-03-13T09:24:15.959Z,1.40
2023-03-13T09:25:19.595Z,2.57
2023-03-13T09:26:23.345Z,2.73
2023-03-13T09:27:25.794Z,1.87
2023-03-13T09:28:28.838Z,2.47
2023-03-13T09:29:31.097Z,2.13
2023-03-13T09:30:35.723Z,2.77
2023-03-13T09:31:38.624Z,1.40
2023-03-13T09:32:40.820Z,2.40
2023-03-13T09:33:46.698Z,2.03
2023-03-13T09:34:49.075Z,2.53
2023-03-13T09:35:51.763Z,2.07
2023-03-13T09:36:53.972Z,1.93
2023-03-13T09:37:57.157Z,2.10
2023-03-13T09:39:00.913Z,3.80
2023-03-13T09:40:05.904Z,2.50
2023-03-13T09:41:17.167Z,2.43
2023-03-13T09:42:23.921Z,2.13
2023-03-13T09:43:41.154Z,2.27
2023-03-13T09:44:50.081Z,2.33
2023-03-13T09:45:57.604Z,2.30
2023-03-13T09:47:13.306Z,1.97
2023-03-13T09:48:36.296Z,2.57
2023-03-13T09:49:42.943Z,1.90
2023-03-13T09:50:55.808Z,2.53
2023-03-13T09:52:34.667Z,2.97
2023-03-13T09:53:49.726Z,3.10
2023-03-13T09:55:20.729Z,4.20
2023-03-13T09:56:28.140Z,3.10
2023-03-13T09:57:49.746Z,3.10
2023-03-13T09:58:59.069Z,2.20
2023-03-13T10:00:30.855Z,2.93
2023-03-13T10:01:35.865Z,3.30
2023-03-13T10:02:38.945Z,2.03
2023-03-13T10:03:55.708Z,1.77
2023-03-13T10:05:13.709Z,1.70
2023-03-13T10:06:21.918Z,2.63
2023-03-13T10:07:24.092Z,1.47
2023-03-13T10:08:30.440Z,1.37
2023-03-13T10:09:33.990Z,1.57
2023-03-13T10:10:44.534Z,1.77
2023-03-13T10:12:12.472Z,2.60
2023-03-13T10:13:22.850Z,2.00
2023-03-13T10:14:53.234Z,1.80
2023-03-13T10:16:02.675Z,1.70
2023-03-13T10:17:13.073Z,1.30
2023-03-13T10:18:20.602Z,1.60
2023-03-13T10:19:31.588Z,1.40
2023-03-13T10:20:36.380Z,1.60
2023-03-13T10:21:41.033Z,1.53
2023-03-13T10:22:49.194Z,2.27
2023-03-13T10:24:38.205Z,2.37
2023-03-13T10:25:40.529Z,3.20
2023-03-13T10:26:42.711Z,2.03
2023-03-13T10:27:51.403Z,3.30
2023-03-13T10:28:54.730Z,1.43
2023-03-13T10:29:58.300Z,1.60
2023-03-13T10:31:41.792Z,1.93
2023-03-13T10:32:45.537Z,1.60
2023-03-13T10:33:48.144Z,3.67
2023-03-13T10:34:51.372Z,2.22
2023-03-13T10:36:11.053Z,1.30
2023-03-13T10:37:20.355Z,1.52
2023-03-13T10:38:25.238Z,1.73
2023-03-13T10:39:29.653Z,1.43
2023-03-13T10:40:32.100Z,1.20
2023-03-13T10:41:37.182Z,1.63
2023-03-13T10:42:45.720Z,1.63
2023-03-13T10:43:59.954Z,1.70
2023-03-13T10:45:05.280Z,1.80
2023-03-13T10:46:09.222Z,1.30
2023-03-13T10:47:14.510Z,2.08
2023-03-13T10:48:22.998Z,1.83
2023-03-13T10:49:27.676Z,1.60
2023-03-13T10:50:34.950Z,1.20
2023-03-13T10:51:39.625Z,2.78
2023-03-13T10:52:47.599Z,2.83
2023-03-13T10:53:52.891Z,1.52
2023-03-13T10:55:11.615Z,2.25
2023-03-13T10:56:17.333Z,1.35
2023-03-13T10:57:19.478Z,1.92
2023-03-13T10:58:30.441Z,1.70
2023-03-13T10:59:39.144Z,1.38
2023-03-13T11:00:42.640Z,1.65
2023-03-13T11:01:45.372Z,1.88
2023-03-13T11:02:47.712Z,1.65
2023-03-13T11:03:52.861Z,2.25
2023-03-13T11:04:56.760Z,1.75
2023-03-13T11:06:04.037Z,1.48
2023-03-13T11:07:15.774Z,1.42
2023-03-13T11:08:34.056Z,1.17
2023-03-13T11:09:37.975Z,1.45
2023-03-13T11:10:56.944Z,1.20
2023-03-13T11:12:27.268Z,1.05
2023-03-13T11:13:43.068Z,1.00
2023-03-13T11:14:45.768Z,1.25
2023-03-13T11:15:57.553Z,1.30
2023-03-13T11:17:15.370Z,1.25
2023-03-13T11:18:55.076Z,1.40
2023-03-13T11:20:14.018Z,1.58
2023-03-13T11:21:24.822Z,1.15
2023-03-13T11:22:46.666Z,1.10
2023-03-13T11:24:04.408Z,1.35
2023-03-13T11:25:58.889Z,1.30
2023-03-13T11:27:15.453Z,0.80
2023-03-13T11:28:36.748Z,1.63
2023-03-13T11:29:55.493Z,1.15
2023-03-13T11:31:18.105Z,1.10
2023-03-13T11:32:26.911Z,0.90
2023-03-13T11:33:47.626Z,1.33
2023-03-13T11:34:56.467Z,1.58
2023-03-13T11:36:07.490Z,1.52
2023-03-13T11:37:13.477Z,1.95
2023-03-13T11:38:34.367Z,1.55
2023-03-13T11:39:42.699Z,1.55
2023-03-13T11:41:21.030Z,1.65
2023-03-13T11:42:44.708Z,1.30
2023-03-13T11:44:09.022Z,1.00
2023-03-13T11:45:39.319Z,1.30
2023-03-13T11:47:05.411Z,1.20
2023-03-13T11:48:23.904Z,1.42
2023-03-13T11:49:39.798Z,1.50
2023-03-13T11:51:14.623Z,1.30
2023-03-13T11:52:45.279Z,1.08
2023-03-13T11:54:25.563Z,2.10
2023-03-13T11:55:54.201Z,2.30
2023-03-13T11:56:58.854Z,1.52
2023-03-13T11:58:07.152Z,1.58
2023-03-13T11:59:37.773Z,1.20
2023-03-13T12:00:50.846Z,1.33
2023-03-13T12:01:59.399Z,1.38
2023-03-13T12:03:25.708Z,1.88
2023-03-13T12:04:40.056Z,1.48
2023-03-13T12:05:52.197Z,1.70
2023-03-13T12:07:29.846Z,1.85
2023-03-13T12:08:41.500Z,1.25
2023-03-13T12:09:49.902Z,1.30
2023-03-13T12:11:07.368Z,1.20
2023-03-13T12:12:20.007Z,1.48
2023-03-13T12:14:22.625Z,1.30
2023-03-13T12:15:45.870Z,1.85
2023-03-13T12:16:57.272Z,1.48
2023-03-13T12:18:25.425Z,1.27
2023-03-13T12:19:34.723Z,1.20
2023-03-13T12:20:53.908Z,1.35
2023-03-13T12:22:04.660Z,1.48
2023-03-13T12:23:07.113Z,1.85
2023-03-13T12:24:23.051Z,1.17
2023-03-13T12:25:34.470Z,1.20
2023-03-13T12:26:46.572Z,1.25
2023-03-13T12:27:54.001Z,1.33
2023-03-13T12:29:33.529Z,1.45
2023-03-13T12:30:53.066Z,1.42
2023-03-13T12:32:04.577Z,1.20
2023-03-13T12:33:20.297Z,1.20
2023-03-13T12:34:36.240Z,1.10
2023-03-13T12:35:44.377Z,1.20
2023-03-13T12:37:12.696Z,0.93
2023-03-13T12:38:26.177Z,2.58
2023-03-13T12:39:52.189Z,1.27
2023-03-13T12:41:11.139Z,1.00
2023-03-13T12:42:50.216Z,0.80
2023-03-13T12:44:07.624Z,0.93
2023-03-13T12:45:25.123Z,1.63
2023-03-13T12:46:39.267Z,0.95
2023-03-13T12:48:04.616Z,1.13
2023-03-13T12:49:15.552Z,1.30
2023-03-13T12:50:42.007Z,1.13
2023-03-13T12:51:50.112Z,1.20
2023-03-13T12:52:58.931Z,1.65
2023-03-13T12:54:06.981Z,1.20
2023-03-13T12:55:44.394Z,2.22
2023-03-13T12:56:52.784Z,1.25
2023-03-13T12:58:15.132Z,2.97
2023-03-13T12:59:48.220Z,3.20
2023-03-13T13:00:52.109Z,1.70
2023-03-13T13:01:55.882Z,1.85
2023-03-13T13:03:08.010Z,1.48
2023-03-13T13:04:17.284Z,2.75
2023-03-13T13:05:23.625Z,1.40
2023-03-13T13:06:28.674Z,1.55
2023-03-13T13:07:34.576Z,1.58
2023-03-13T13:09:07.805Z,2.22
2023-03-13T13:10:13.024Z,1.60
2023-03-13T13:11:33.832Z,1.67
2023-03-13T13:12:38.738Z,1.90
2023-03-13T13:13:42.198Z,1.83
2023-03-13T13:14:52.609Z,1.65
2023-03-13T13:16:05.375Z,1.65
2023-03-13T13:17:25.936Z,1.77
2023-03-13T13:18:33.771Z,1.85
2023-03-13T13:19:39.183Z,1.90
2023-03-13T13:20:48.763Z,1.88
2023-03-13T13:22:29.787Z,1.95
2023-03-13T13:23:38.790Z,2.25
2023-03-13T13:24:50.863Z,2.47
2023-03-13T13:25:56.699Z,1.70
2023-03-13T13:26:59.465Z,2.00
2023-03-13T13:28:35.578Z,2.42
2023-03-13T13:29:52.788Z,2.47
2023-03-13T13:30:56.713Z,2.55
2023-03-13T13:32:01.517Z,1.35
2023-03-13T13:33:19.823Z,1.67
2023-03-13T13:34:28.211Z,1.88
2023-03-13T13:35:37.040Z,3.42
2023-03-13T13:36:42.839Z,1.83
2023-03-13T13:37:47.589Z,1.83
2023-03-13T13:38:52.031Z,2.13
2023-03-13T13:39:55.453Z,1.70
2023-03-13T13:41:09.655Z,2.83
2023-03-13T13:42:30.960Z,1.40
2023-03-13T13:43:35.755Z,1.20
2023-03-13T13:45:04.402Z,2.15
2023-03-13T13:46:34.173Z,1.25
2023-03-13T13:47:40.093Z,1.30
2023-03-13T13:48:45.931Z,2.42
2023-03-13T13:50:19.092Z,2.50
2023-03-13T13:51:24.385Z,1.23
2023-03-13T13:52:34.861Z,1.83
2023-03-13T13:54:05.578Z,2.45
2023-03-13T13:55:41.238Z,1.70
2023-03-13T13:56:47.832Z,1.40
2023-03-13T13:57:52.281Z,1.25
2023-03-13T13:59:03.056Z,2.13
2023-03-13T14:00:19.783Z,2.15
2023-03-13T14:01:22.068Z,1.30
2023-03-13T14:02:30.657Z,3.08
2023-03-13T14:03:34.919Z,1.15
2023-03-13T14:04:51.445Z,1.13
2023-03-13T14:05:59.573Z,1.45
2023-03-13T14:07:04.539Z,1.48
2023-03-13T14:08:14.488Z,1.10
2023-03-13T14:09:59.620Z,1.48
2023-03-13T14:11:27.725Z,2.55
2023-03-13T14:12:35.828Z,1.60
2023-03-13T14:13:40.619Z,3.00
2023-03-13T14:14:42.859Z,1.73
2023-03-13T14:15:55.704Z,2.03
2023-03-13T14:16:58.299Z,1.65
2023-03-13T14:18:23.334Z,1.30
2023-03-13T14:19:34.784Z,1.38
2023-03-13T14:20:39.726Z,1.88
2023-03-13T14:21:42.142Z,1.85
2023-03-13T14:22:46.747Z,1.40
2023-03-13T14:23:49.475Z,1.73
2023-03-13T14:24:58.965Z,1.10
2023-03-13T14:26:24.708Z,1.40
2023-03-13T14:27:26.873Z,1.40
2023-03-13T14:28:29.493Z,2.95
2023-03-13T14:29:31.847Z,1.65
2023-03-13T14:30:34.215Z,1.75
2023-03-13T14:31:39.305Z,1.45
2023-03-13T14:32:42.079Z,1.35
2023-03-13T14:33:44.430Z,1.35
2023-03-13T14:34:46.676Z,1.45
2023-03-13T14:35:49.758Z,1.75
2023-03-13T14:37:16.925Z,3.08
2023-03-13T14:38:25.317Z,1.92
2023-03-13T14:39:33.656Z,2.70
2023-03-13T14:40:39.531Z,1.83
2023-03-13T14:41:46.695Z,1.50
2023-03-13T14:42:55.396Z,1.40
2023-03-13T14:44:04.986Z,2.20
2023-03-13T14:45:19.794Z,1.67
2023-03-13T14:46:32.989Z,1.48
2023-03-13T14:47:35.315Z,2.88
2023-03-13T14:48:38.752Z,1.50
2023-03-13T14:49:46.310Z,2.00
2023-03-13T14:50:55.754Z,4.30
2023-03-13T14:52:13.945Z,1.92
2023-03-13T14:53:22.063Z,1.67
2023-03-13T14:54:51.434Z,1.42
2023-03-13T14:56:19.294Z,2.70
2023-03-13T14:57:27.501Z,2.92
2023-03-13T14:58:31.632Z,1.40
2023-03-13T14:59:34.368Z,1.65
2023-03-13T15:00:43.577Z,3.25
2023-03-13T15:01:46.845Z,4.03
2023-03-13T15:02:49.442Z,2.83
2023-03-13T15:03:52.594Z,2.08
2023-03-13T15:04:59.819Z,1.50
2023-03-13T15:06:03.506Z,2.78
2023-03-13T15:07:08.823Z,2.33
2023-03-13T15:08:15.886Z,1.75
2023-03-13T15:09:24.030Z,1.50
2023-03-13T15:10:36.927Z,1.98
2023-03-13T15:11:42.703Z,1.70
2023-03-13T15:12:45.156Z,2.10
2023-03-13T15:13:47.581Z,2.28
2023-03-13T15:14:52.820Z,2.28
2023-03-13T15:15:55.326Z,1.67
2023-03-13T15:16:57.626Z,1.50
2023-03-13T15:17:59.945Z,2.05